首页
METAR-TAF:

METAR-TAF

机场 :

Savannah/Hilton Head International Airport

薩凡納, 喬治亞, 美国

纬度: 32-07-08N, 经度: 081-12-08W, 海拔: 15米

当前天气观测

该预报发布于23分钟前的13:53 UTC
风速7节,风向西
温度 28°C
湿度 79%
气压 1019 hPa
能見度: 16.1公里
少量云层高于700英尺
少量云层高于1500英尺
散云层高于21000英尺
多云层高于25000英尺

METAR: KSAV 201353Z 27007KT 10SM FEW007 FEW015 SCT210 BKN250 28/24 A3010 RMK AO2 SLP193 T02780239

时间: 10:16 (14:16 UTC)

预报

该预报发布于2小时和56分钟前的11:20 UTC
预报有效从20日的 12点(UTC)到 21日的 12点(UTC)
风速3节,风向西南
能見度: 10公里
多云层高于25000英尺
从 20日的 1400点(UTC)
风速7节,风向西转西南
能見度: 10公里
散云层高于3000英尺
从 20日的 1800点(UTC)
风速10节,风向
能見度: 10公里
多云层高于4000英尺
从 21日的 0300点(UTC)
风速4节,风向南转西南
能見度: 10公里
散云层高于25000英尺

TAF: KSAV 201120Z 2012/2112 23003KT P6SM BKN250 FM201400 24007KT P6SM SCT030 FM201800 19010KT P6SM BKN040 FM210300 21004KT P6SM SCT250

超过4000个机场的气象观测和天气预报(METAR&TAF报告)。

可查询的气象台以黄色和红色小点在地图上表示。

将鼠标移到小点上方,可查看气象台名称。

然后点击查看天气观测和预报。

如需切换地图:点击带黑十字的绿色按钮放大地图;点击带横线的绿色按钮缩小地图;或者点击绿色箭头查看邻近地区的地图。


METAR-TAF: